sensor_id;sensor_type;location;lat;lon;timestamp;P1;durP1;ratioP1;P2;durP2;ratioP2
75297;SDS011;63896;45.990;18.688;2023-12-28T00:01:24;51.50;;;24.88;;
75297;SDS011;63896;45.990;18.688;2023-12-28T00:04:27;57.58;;;25.02;;
75297;SDS011;63896;45.990;18.688;2023-12-28T00:07:30;50.97;;;23.23;;
75297;SDS011;63896;45.990;18.688;2023-12-28T00:10:33;51.13;;;24.38;;
75297;SDS011;63896;45.990;18.688;2023-12-28T00:13:36;47.67;;;22.93;;
75297;SDS011;63896;45.990;18.688;2023-12-28T00:16:38;50.10;;;23.60;;
75297;SDS011;63896;45.990;18.688;2023-12-28T00:19:41;48.20;;;23.27;;
75297;SDS011;63896;45.990;18.688;2023-12-28T00:22:44;50.58;;;23.85;;
75297;SDS011;63896;45.990;18.688;2023-12-28T00:25:47;49.95;;;23.40;;
75297;SDS011;63896;45.990;18.688;2023-12-28T00:28:49;49.67;;;22.13;;
75297;SDS011;63896;45.990;18.688;2023-12-28T00:31:52;50.35;;;24.27;;
75297;SDS011;63896;45.990;18.688;2023-12-28T00:34:55;51.33;;;24.50;;
75297;SDS011;63896;45.990;18.688;2023-12-28T00:37:58;54.05;;;24.25;;
75297;SDS011;63896;45.990;18.688;2023-12-28T00:41:02;49.65;;;24.40;;
75297;SDS011;63896;45.990;18.688;2023-12-28T00:44:05;46.60;;;21.57;;
75297;SDS011;63896;45.990;18.688;2023-12-28T00:47:12;45.20;;;21.80;;
75297;SDS011;63896;45.990;18.688;2023-12-28T00:50:14;40.45;;;20.88;;
75297;SDS011;63896;45.990;18.688;2023-12-28T00:53:17;48.88;;;20.85;;
75297;SDS011;63896;45.990;18.688;2023-12-28T00:56:20;51.40;;;21.15;;
75297;SDS011;63896;45.990;18.688;2023-12-28T00:59:23;49.97;;;22.43;;
75297;SDS011;63896;45.990;18.688;2023-12-28T01:02:26;49.85;;;22.33;;
75297;SDS011;63896;45.990;18.688;2023-12-28T01:05:29;59.25;;;25.35;;
75297;SDS011;63896;45.990;18.688;2023-12-28T01:08:32;50.47;;;24.23;;
75297;SDS011;63896;45.990;18.688;2023-12-28T01:11:38;55.20;;;25.23;;
75297;SDS011;63896;45.990;18.688;2023-12-28T01:14:46;52.93;;;24.23;;
75297;SDS011;63896;45.990;18.688;2023-12-28T01:17:49;75.53;;;27.75;;
75297;SDS011;63896;45.990;18.688;2023-12-28T01:20:52;88.55;;;32.17;;
75297;SDS011;63896;45.990;18.688;2023-12-28T01:23:55;87.32;;;31.85;;
75297;SDS011;63896;45.990;18.688;2023-12-28T01:26:57;77.78;;;30.27;;
75297;SDS011;63896;45.990;18.688;2023-12-28T01:30:00;77.47;;;29.83;;
75297;SDS011;63896;45.990;18.688;2023-12-28T01:33:03;70.75;;;28.67;;
75297;SDS011;63896;45.990;18.688;2023-12-28T01:36:19;65.85;;;27.30;;
75297;SDS011;63896;45.990;18.688;2023-12-28T01:39:22;56.35;;;24.88;;
75297;SDS011;63896;45.990;18.688;2023-12-28T01:42:25;55.67;;;26.05;;
75297;SDS011;63896;45.990;18.688;2023-12-28T01:45:28;58.93;;;27.67;;
75297;SDS011;63896;45.990;18.688;2023-12-28T01:48:31;61.05;;;27.50;;
75297;SDS011;63896;45.990;18.688;2023-12-28T01:51:35;65.50;;;28.17;;
75297;SDS011;63896;45.990;18.688;2023-12-28T01:54:39;69.25;;;27.83;;
75297;SDS011;63896;45.990;18.688;2023-12-28T01:57:42;61.22;;;27.38;;
75297;SDS011;63896;45.990;18.688;2023-12-28T02:00:45;56.67;;;26.37;;
75297;SDS011;63896;45.990;18.688;2023-12-28T02:03:49;55.92;;;25.88;;
75297;SDS011;63896;45.990;18.688;2023-12-28T02:06:54;53.00;;;24.48;;
75297;SDS011;63896;45.990;18.688;2023-12-28T02:10:00;51.17;;;23.35;;
75297;SDS011;63896;45.990;18.688;2023-12-28T02:13:03;48.08;;;22.15;;
75297;SDS011;63896;45.990;18.688;2023-12-28T02:16:15;45.23;;;20.33;;
75297;SDS011;63896;45.990;18.688;2023-12-28T02:22:53;38.25;;;18.60;;
75297;SDS011;63896;45.990;18.688;2023-12-28T02:25:56;43.80;;;18.80;;
75297;SDS011;63896;45.990;18.688;2023-12-28T02:28:59;43.78;;;19.10;;
75297;SDS011;63896;45.990;18.688;2023-12-28T02:32:02;39.03;;;18.67;;
75297;SDS011;63896;45.990;18.688;2023-12-28T02:35:14;41.63;;;18.17;;
75297;SDS011;63896;45.990;18.688;2023-12-28T02:38:19;43.85;;;18.90;;
75297;SDS011;63896;45.990;18.688;2023-12-28T02:41:24;39.75;;;17.55;;
75297;SDS011;63896;45.990;18.688;2023-12-28T02:44:29;46.80;;;20.15;;
75297;SDS011;63896;45.990;18.688;2023-12-28T02:47:32;44.93;;;19.40;;
75297;SDS011;63896;45.990;18.688;2023-12-28T02:50:34;44.38;;;18.88;;
75297;SDS011;63896;45.990;18.688;2023-12-28T02:53:38;46.25;;;20.75;;
75297;SDS011;63896;45.990;18.688;2023-12-28T02:56:41;44.58;;;20.70;;
75297;SDS011;63896;45.990;18.688;2023-12-28T02:59:45;51.70;;;21.67;;
75297;SDS011;63896;45.990;18.688;2023-12-28T03:02:48;53.97;;;21.63;;
75297;SDS011;63896;45.990;18.688;2023-12-28T03:05:51;54.30;;;23.60;;
75297;SDS011;63896;45.990;18.688;2023-12-28T03:08:53;56.70;;;25.73;;
75297;SDS011;63896;45.990;18.688;2023-12-28T03:11:58;55.88;;;24.58;;
75297;SDS011;63896;45.990;18.688;2023-12-28T03:15:02;57.85;;;26.00;;
75297;SDS011;63896;45.990;18.688;2023-12-28T03:18:06;55.53;;;24.80;;
75297;SDS011;63896;45.990;18.688;2023-12-28T03:21:11;58.67;;;24.58;;
75297;SDS011;63896;45.990;18.688;2023-12-28T03:24:13;59.15;;;25.10;;
75297;SDS011;63896;45.990;18.688;2023-12-28T03:27:16;59.40;;;24.27;;
75297;SDS011;63896;45.990;18.688;2023-12-28T03:30:19;65.45;;;27.58;;
75297;SDS011;63896;45.990;18.688;2023-12-28T03:33:22;64.17;;;27.07;;
75297;SDS011;63896;45.990;18.688;2023-12-28T03:36:24;70.05;;;28.23;;
75297;SDS011;63896;45.990;18.688;2023-12-28T03:39:27;63.60;;;28.73;;
75297;SDS011;63896;45.990;18.688;2023-12-28T03:42:30;65.35;;;27.23;;
75297;SDS011;63896;45.990;18.688;2023-12-28T03:45:33;71.50;;;28.20;;
75297;SDS011;63896;45.990;18.688;2023-12-28T03:48:36;55.83;;;26.07;;
75297;SDS011;63896;45.990;18.688;2023-12-28T03:51:41;65.45;;;27.35;;
75297;SDS011;63896;45.990;18.688;2023-12-28T03:54:43;68.93;;;28.77;;
75297;SDS011;63896;45.990;18.688;2023-12-28T03:57:47;62.97;;;29.52;;
75297;SDS011;63896;45.990;18.688;2023-12-28T04:00:51;64.57;;;29.25;;
75297;SDS011;63896;45.990;18.688;2023-12-28T04:03:55;61.13;;;25.37;;
75297;SDS011;63896;45.990;18.688;2023-12-28T04:06:59;63.97;;;26.08;;
75297;SDS011;63896;45.990;18.688;2023-12-28T04:10:02;66.25;;;26.13;;
75297;SDS011;63896;45.990;18.688;2023-12-28T04:13:05;66.47;;;25.25;;
75297;SDS011;63896;45.990;18.688;2023-12-28T04:16:08;59.90;;;24.70;;
75297;SDS011;63896;45.990;18.688;2023-12-28T04:19:14;58.50;;;25.10;;
75297;SDS011;63896;45.990;18.688;2023-12-28T04:22:21;66.85;;;26.75;;
75297;SDS011;63896;45.990;18.688;2023-12-28T04:25:24;65.60;;;27.75;;
75297;SDS011;63896;45.990;18.688;2023-12-28T04:28:27;61.10;;;27.10;;
75297;SDS011;63896;45.990;18.688;2023-12-28T04:31:30;64.15;;;25.50;;
75297;SDS011;63896;45.990;18.688;2023-12-28T04:34:32;56.53;;;24.90;;
75297;SDS011;63896;45.990;18.688;2023-12-28T04:37:36;60.72;;;26.00;;
75297;SDS011;63896;45.990;18.688;2023-12-28T04:40:39;63.33;;;26.58;;
75297;SDS011;63896;45.990;18.688;2023-12-28T04:43:41;57.35;;;25.70;;
75297;SDS011;63896;45.990;18.688;2023-12-28T04:46:44;59.85;;;25.58;;
75297;SDS011;63896;45.990;18.688;2023-12-28T04:49:47;53.37;;;24.23;;
75297;SDS011;63896;45.990;18.688;2023-12-28T04:52:50;56.75;;;26.00;;
75297;SDS011;63896;45.990;18.688;2023-12-28T04:55:54;66.53;;;27.27;;
75297;SDS011;63896;45.990;18.688;2023-12-28T04:58:57;69.55;;;27.27;;
75297;SDS011;63896;45.990;18.688;2023-12-28T05:02:00;68.82;;;28.42;;
75297;SDS011;63896;45.990;18.688;2023-12-28T05:05:04;65.30;;;26.77;;
75297;SDS011;63896;45.990;18.688;2023-12-28T05:08:07;67.32;;;27.92;;
75297;SDS011;63896;45.990;18.688;2023-12-28T05:11:09;62.63;;;26.38;;
75297;SDS011;63896;45.990;18.688;2023-12-28T05:14:13;65.75;;;27.05;;
75297;SDS011;63896;45.990;18.688;2023-12-28T05:17:16;66.35;;;27.17;;
75297;SDS011;63896;45.990;18.688;2023-12-28T05:20:19;65.30;;;26.30;;
75297;SDS011;63896;45.990;18.688;2023-12-28T05:23:21;65.68;;;26.38;;
75297;SDS011;63896;45.990;18.688;2023-12-28T05:26:24;61.25;;;25.73;;
75297;SDS011;63896;45.990;18.688;2023-12-28T05:29:28;58.97;;;23.83;;
75297;SDS011;63896;45.990;18.688;2023-12-28T05:32:31;68.30;;;25.67;;
75297;SDS011;63896;45.990;18.688;2023-12-28T05:35:34;58.70;;;24.20;;
75297;SDS011;63896;45.990;18.688;2023-12-28T05:38:36;73.18;;;27.27;;
75297;SDS011;63896;45.990;18.688;2023-12-28T05:41:39;74.05;;;29.10;;
75297;SDS011;63896;45.990;18.688;2023-12-28T05:44:45;72.07;;;27.90;;
75297;SDS011;63896;45.990;18.688;2023-12-28T05:47:48;73.82;;;28.83;;
75297;SDS011;63896;45.990;18.688;2023-12-28T05:50:51;69.87;;;26.20;;
75297;SDS011;63896;45.990;18.688;2023-12-28T05:53:53;68.03;;;27.83;;
75297;SDS011;63896;45.990;18.688;2023-12-28T05:56:56;68.47;;;27.80;;
75297;SDS011;63896;45.990;18.688;2023-12-28T06:00:01;66.00;;;25.13;;
75297;SDS011;63896;45.990;18.688;2023-12-28T06:03:13;67.85;;;27.02;;
75297;SDS011;63896;45.990;18.688;2023-12-28T06:06:17;70.63;;;29.13;;
75297;SDS011;63896;45.990;18.688;2023-12-28T06:09:20;111.57;;;40.00;;
75297;SDS011;63896;45.990;18.688;2023-12-28T06:12:22;106.82;;;43.40;;
75297;SDS011;63896;45.990;18.688;2023-12-28T06:15:25;107.72;;;44.40;;
75297;SDS011;63896;45.990;18.688;2023-12-28T06:18:28;111.20;;;46.00;;
75297;SDS011;63896;45.990;18.688;2023-12-28T06:21:31;111.83;;;46.07;;
75297;SDS011;63896;45.990;18.688;2023-12-28T06:24:38;129.85;;;48.83;;
75297;SDS011;63896;45.990;18.688;2023-12-28T06:27:42;135.52;;;48.95;;
75297;SDS011;63896;45.990;18.688;2023-12-28T06:30:45;128.30;;;49.33;;
75297;SDS011;63896;45.990;18.688;2023-12-28T06:33:48;122.28;;;50.28;;
75297;SDS011;63896;45.990;18.688;2023-12-28T06:36:51;116.03;;;47.63;;
75297;SDS011;63896;45.990;18.688;2023-12-28T06:39:54;124.57;;;46.45;;
75297;SDS011;63896;45.990;18.688;2023-12-28T06:42:57;121.28;;;47.20;;
75297;SDS011;63896;45.990;18.688;2023-12-28T06:46:00;107.32;;;44.80;;
75297;SDS011;63896;45.990;18.688;2023-12-28T06:49:03;109.82;;;46.00;;
75297;SDS011;63896;45.990;18.688;2023-12-28T06:52:12;114.23;;;46.77;;
75297;SDS011;63896;45.990;18.688;2023-12-28T06:55:14;106.43;;;45.35;;
75297;SDS011;63896;45.990;18.688;2023-12-28T06:58:17;109.22;;;46.38;;
75297;SDS011;63896;45.990;18.688;2023-12-28T07:01:20;119.22;;;46.50;;
75297;SDS011;63896;45.990;18.688;2023-12-28T07:04:23;99.88;;;42.10;;
75297;SDS011;63896;45.990;18.688;2023-12-28T07:07:28;100.70;;;43.63;;
75297;SDS011;63896;45.990;18.688;2023-12-28T07:10:31;99.97;;;42.00;;
75297;SDS011;63896;45.990;18.688;2023-12-28T07:13:34;98.97;;;41.35;;
75297;SDS011;63896;45.990;18.688;2023-12-28T07:16:36;93.88;;;40.65;;
75297;SDS011;63896;45.990;18.688;2023-12-28T07:19:40;100.32;;;42.85;;
75297;SDS011;63896;45.990;18.688;2023-12-28T07:22:43;86.70;;;39.37;;
75297;SDS011;63896;45.990;18.688;2023-12-28T07:25:46;105.30;;;45.63;;
75297;SDS011;63896;45.990;18.688;2023-12-28T07:28:49;111.50;;;48.05;;
75297;SDS011;63896;45.990;18.688;2023-12-28T07:31:53;139.60;;;57.22;;
75297;SDS011;63896;45.990;18.688;2023-12-28T07:34:56;148.43;;;60.28;;
75297;SDS011;63896;45.990;18.688;2023-12-28T07:37:59;143.97;;;58.63;;
75297;SDS011;63896;45.990;18.688;2023-12-28T07:41:02;140.90;;;60.38;;
75297;SDS011;63896;45.990;18.688;2023-12-28T07:44:05;130.23;;;58.58;;
75297;SDS011;63896;45.990;18.688;2023-12-28T07:47:08;136.25;;;59.33;;
75297;SDS011;63896;45.990;18.688;2023-12-28T07:50:11;128.30;;;56.92;;
75297;SDS011;63896;45.990;18.688;2023-12-28T07:53:14;139.70;;;63.83;;
75297;SDS011;63896;45.990;18.688;2023-12-28T07:56:17;112.60;;;53.22;;
75297;SDS011;63896;45.990;18.688;2023-12-28T07:59:19;96.25;;;47.83;;
75297;SDS011;63896;45.990;18.688;2023-12-28T08:02:22;101.85;;;47.45;;
75297;SDS011;63896;45.990;18.688;2023-12-28T08:05:26;111.00;;;51.75;;
75297;SDS011;63896;45.990;18.688;2023-12-28T08:08:29;75.47;;;41.40;;
75297;SDS011;63896;45.990;18.688;2023-12-28T08:11:31;71.43;;;39.35;;
75297;SDS011;63896;45.990;18.688;2023-12-28T08:14:34;73.82;;;40.63;;
75297;SDS011;63896;45.990;18.688;2023-12-28T08:17:37;72.45;;;40.45;;
75297;SDS011;63896;45.990;18.688;2023-12-28T08:20:40;92.18;;;50.00;;
75297;SDS011;63896;45.990;18.688;2023-12-28T08:23:43;94.70;;;55.17;;
75297;SDS011;63896;45.990;18.688;2023-12-28T08:26:46;88.65;;;53.42;;
75297;SDS011;63896;45.990;18.688;2023-12-28T08:29:48;98.47;;;56.00;;
75297;SDS011;63896;45.990;18.688;2023-12-28T08:32:51;103.88;;;58.53;;
75297;SDS011;63896;45.990;18.688;2023-12-28T08:35:54;97.20;;;57.53;;
75297;SDS011;63896;45.990;18.688;2023-12-28T08:38:57;108.17;;;58.40;;
75297;SDS011;63896;45.990;18.688;2023-12-28T08:41:59;112.07;;;63.80;;
75297;SDS011;63896;45.990;18.688;2023-12-28T08:45:03;107.22;;;62.53;;
75297;SDS011;63896;45.990;18.688;2023-12-28T08:48:06;73.32;;;45.40;;
75297;SDS011;63896;45.990;18.688;2023-12-28T08:51:09;84.10;;;53.17;;
75297;SDS011;63896;45.990;18.688;2023-12-28T08:54:12;69.57;;;40.87;;
75297;SDS011;63896;45.990;18.688;2023-12-28T08:57:16;60.50;;;39.03;;
75297;SDS011;63896;45.990;18.688;2023-12-28T09:00:32;61.35;;;38.33;;
75297;SDS011;63896;45.990;18.688;2023-12-28T09:03:35;61.30;;;36.97;;
75297;SDS011;63896;45.990;18.688;2023-12-28T09:06:38;57.83;;;34.88;;
75297;SDS011;63896;45.990;18.688;2023-12-28T09:09:41;44.77;;;26.80;;
75297;SDS011;63896;45.990;18.688;2023-12-28T09:12:44;38.28;;;25.80;;
75297;SDS011;63896;45.990;18.688;2023-12-28T09:15:47;40.78;;;26.88;;
75297;SDS011;63896;45.990;18.688;2023-12-28T09:18:50;46.10;;;28.17;;
75297;SDS011;63896;45.990;18.688;2023-12-28T09:21:53;41.45;;;28.20;;
75297;SDS011;63896;45.990;18.688;2023-12-28T09:24:56;46.70;;;29.33;;
75297;SDS011;63896;45.990;18.688;2023-12-28T09:27:59;45.25;;;29.50;;
75297;SDS011;63896;45.990;18.688;2023-12-28T09:31:02;45.53;;;30.88;;
75297;SDS011;63896;45.990;18.688;2023-12-28T09:34:06;46.40;;;30.00;;
75297;SDS011;63896;45.990;18.688;2023-12-28T09:37:08;45.40;;;30.17;;
75297;SDS011;63896;45.990;18.688;2023-12-28T09:40:11;49.77;;;31.23;;
75297;SDS011;63896;45.990;18.688;2023-12-28T09:46:29;53.72;;;33.50;;
75297;SDS011;63896;45.990;18.688;2023-12-28T09:49:32;53.50;;;34.45;;
75297;SDS011;63896;45.990;18.688;2023-12-28T09:52:36;46.53;;;31.10;;
75297;SDS011;63896;45.990;18.688;2023-12-28T09:55:38;47.37;;;29.33;;
75297;SDS011;63896;45.990;18.688;2023-12-28T09:58:41;43.13;;;30.77;;
75297;SDS011;63896;45.990;18.688;2023-12-28T10:01:46;50.40;;;30.15;;
75297;SDS011;63896;45.990;18.688;2023-12-28T10:04:50;43.75;;;29.40;;
75297;SDS011;63896;45.990;18.688;2023-12-28T10:07:53;44.88;;;28.73;;
75297;SDS011;63896;45.990;18.688;2023-12-28T10:10:58;35.67;;;23.90;;
75297;SDS011;63896;45.990;18.688;2023-12-28T10:14:03;34.80;;;23.65;;
75297;SDS011;63896;45.990;18.688;2023-12-28T10:17:07;33.88;;;23.95;;
75297;SDS011;63896;45.990;18.688;2023-12-28T10:20:09;33.13;;;21.90;;
75297;SDS011;63896;45.990;18.688;2023-12-28T10:23:12;33.65;;;23.58;;
75297;SDS011;63896;45.990;18.688;2023-12-28T10:26:17;36.43;;;24.47;;
75297;SDS011;63896;45.990;18.688;2023-12-28T10:29:20;33.72;;;21.02;;
75297;SDS011;63896;45.990;18.688;2023-12-28T10:32:27;31.38;;;19.38;;
75297;SDS011;63896;45.990;18.688;2023-12-28T10:35:30;30.25;;;19.60;;
75297;SDS011;63896;45.990;18.688;2023-12-28T10:38:34;30.63;;;20.35;;
75297;SDS011;63896;45.990;18.688;2023-12-28T10:41:41;28.53;;;20.33;;
75297;SDS011;63896;45.990;18.688;2023-12-28T10:44:46;24.88;;;19.15;;
75297;SDS011;63896;45.990;18.688;2023-12-28T10:51:00;30.35;;;20.38;;
75297;SDS011;63896;45.990;18.688;2023-12-28T10:54:11;37.65;;;22.67;;
75297;SDS011;63896;45.990;18.688;2023-12-28T10:57:29;33.93;;;22.13;;
75297;SDS011;63896;45.990;18.688;2023-12-28T11:00:58;33.05;;;20.52;;
75297;SDS011;63896;45.990;18.688;2023-12-28T11:04:10;30.13;;;20.60;;
75297;SDS011;63896;45.990;18.688;2023-12-28T11:07:14;30.20;;;19.23;;
75297;SDS011;63896;45.990;18.688;2023-12-28T11:10:19;30.00;;;19.75;;
75297;SDS011;63896;45.990;18.688;2023-12-28T11:13:25;31.77;;;20.23;;
75297;SDS011;63896;45.990;18.688;2023-12-28T11:16:28;27.88;;;20.02;;
75297;SDS011;63896;45.990;18.688;2023-12-28T11:19:32;31.48;;;21.20;;
75297;SDS011;63896;45.990;18.688;2023-12-28T11:22:37;31.25;;;20.83;;
75297;SDS011;63896;45.990;18.688;2023-12-28T11:25:40;29.50;;;20.85;;
75297;SDS011;63896;45.990;18.688;2023-12-28T11:28:43;29.37;;;20.40;;
75297;SDS011;63896;45.990;18.688;2023-12-28T11:31:57;27.42;;;19.30;;
75297;SDS011;63896;45.990;18.688;2023-12-28T11:35:00;43.63;;;26.27;;
75297;SDS011;63896;45.990;18.688;2023-12-28T11:38:04;32.35;;;22.40;;
75297;SDS011;63896;45.990;18.688;2023-12-28T11:41:15;29.20;;;19.77;;
75297;SDS011;63896;45.990;18.688;2023-12-28T11:44:18;31.07;;;20.83;;
75297;SDS011;63896;45.990;18.688;2023-12-28T11:47:28;27.02;;;18.90;;
75297;SDS011;63896;45.990;18.688;2023-12-28T11:50:31;27.38;;;17.67;;
75297;SDS011;63896;45.990;18.688;2023-12-28T11:53:35;22.13;;;14.52;;
75297;SDS011;63896;45.990;18.688;2023-12-28T11:56:39;23.27;;;16.02;;
75297;SDS011;63896;45.990;18.688;2023-12-28T11:59:42;35.07;;;19.17;;
75297;SDS011;63896;45.990;18.688;2023-12-28T12:02:45;23.33;;;15.05;;
75297;SDS011;63896;45.990;18.688;2023-12-28T12:05:48;26.63;;;15.90;;
75297;SDS011;63896;45.990;18.688;2023-12-28T12:08:52;20.17;;;13.07;;
75297;SDS011;63896;45.990;18.688;2023-12-28T12:11:55;24.95;;;14.88;;
75297;SDS011;63896;45.990;18.688;2023-12-28T12:14:58;23.07;;;12.53;;
75297;SDS011;63896;45.990;18.688;2023-12-28T12:18:01;38.08;;;19.15;;
75297;SDS011;63896;45.990;18.688;2023-12-28T12:21:05;29.00;;;17.17;;
75297;SDS011;63896;45.990;18.688;2023-12-28T12:24:09;31.27;;;17.00;;
75297;SDS011;63896;45.990;18.688;2023-12-28T12:27:12;37.00;;;20.80;;
75297;SDS011;63896;45.990;18.688;2023-12-28T12:30:15;28.63;;;18.90;;
75297;SDS011;63896;45.990;18.688;2023-12-28T12:33:17;29.35;;;18.98;;
75297;SDS011;63896;45.990;18.688;2023-12-28T12:36:21;41.50;;;21.25;;
75297;SDS011;63896;45.990;18.688;2023-12-28T12:39:24;40.35;;;22.00;;
75297;SDS011;63896;45.990;18.688;2023-12-28T12:42:27;40.75;;;23.63;;
75297;SDS011;63896;45.990;18.688;2023-12-28T12:45:30;45.90;;;24.53;;
75297;SDS011;63896;45.990;18.688;2023-12-28T12:48:33;40.42;;;21.40;;
75297;SDS011;63896;45.990;18.688;2023-12-28T12:51:37;38.10;;;20.40;;
75297;SDS011;63896;45.990;18.688;2023-12-28T12:54:40;41.28;;;24.15;;
75297;SDS011;63896;45.990;18.688;2023-12-28T12:57:43;53.45;;;26.25;;
75297;SDS011;63896;45.990;18.688;2023-12-28T13:00:47;40.27;;;21.47;;
75297;SDS011;63896;45.990;18.688;2023-12-28T13:03:50;46.65;;;20.60;;
75297;SDS011;63896;45.990;18.688;2023-12-28T13:06:53;35.10;;;18.40;;
75297;SDS011;63896;45.990;18.688;2023-12-28T13:09:56;31.80;;;18.83;;
75297;SDS011;63896;45.990;18.688;2023-12-28T13:12:59;27.85;;;16.27;;
75297;SDS011;63896;45.990;18.688;2023-12-28T13:16:04;26.97;;;16.67;;
75297;SDS011;63896;45.990;18.688;2023-12-28T13:19:07;27.23;;;13.98;;
75297;SDS011;63896;45.990;18.688;2023-12-28T13:22:10;31.98;;;16.02;;
75297;SDS011;63896;45.990;18.688;2023-12-28T13:25:13;28.45;;;12.88;;
75297;SDS011;63896;45.990;18.688;2023-12-28T13:28:17;20.13;;;11.18;;
75297;SDS011;63896;45.990;18.688;2023-12-28T13:31:20;17.73;;;10.17;;
75297;SDS011;63896;45.990;18.688;2023-12-28T13:34:23;20.50;;;10.85;;
75297;SDS011;63896;45.990;18.688;2023-12-28T13:37:26;20.50;;;10.77;;
75297;SDS011;63896;45.990;18.688;2023-12-28T13:40:29;19.63;;;10.77;;
75297;SDS011;63896;45.990;18.688;2023-12-28T13:43:33;22.08;;;11.75;;
75297;SDS011;63896;45.990;18.688;2023-12-28T13:46:36;28.97;;;14.63;;
75297;SDS011;63896;45.990;18.688;2023-12-28T13:49:39;24.75;;;12.40;;
75297;SDS011;63896;45.990;18.688;2023-12-28T13:52:42;23.17;;;11.65;;
75297;SDS011;63896;45.990;18.688;2023-12-28T13:55:45;25.95;;;12.18;;
75297;SDS011;63896;45.990;18.688;2023-12-28T13:58:48;29.85;;;15.57;;
75297;SDS011;63896;45.990;18.688;2023-12-28T14:01:50;29.97;;;14.37;;
75297;SDS011;63896;45.990;18.688;2023-12-28T14:04:53;24.63;;;12.30;;
75297;SDS011;63896;45.990;18.688;2023-12-28T14:07:58;32.30;;;16.90;;
75297;SDS011;63896;45.990;18.688;2023-12-28T14:11:01;37.80;;;18.90;;
75297;SDS011;63896;45.990;18.688;2023-12-28T14:14:07;46.75;;;21.92;;
75297;SDS011;63896;45.990;18.688;2023-12-28T14:17:10;49.70;;;22.93;;
75297;SDS011;63896;45.990;18.688;2023-12-28T14:20:12;50.72;;;24.80;;
75297;SDS011;63896;45.990;18.688;2023-12-28T14:23:16;45.85;;;22.35;;
75297;SDS011;63896;45.990;18.688;2023-12-28T14:26:20;51.00;;;27.30;;
75297;SDS011;63896;45.990;18.688;2023-12-28T14:29:24;57.25;;;25.35;;
75297;SDS011;63896;45.990;18.688;2023-12-28T14:32:29;44.50;;;21.83;;
75297;SDS011;63896;45.990;18.688;2023-12-28T14:35:32;38.88;;;20.33;;
75297;SDS011;63896;45.990;18.688;2023-12-28T14:38:35;32.70;;;16.77;;
75297;SDS011;63896;45.990;18.688;2023-12-28T14:41:38;37.75;;;17.75;;
75297;SDS011;63896;45.990;18.688;2023-12-28T14:44:45;43.10;;;22.33;;
75297;SDS011;63896;45.990;18.688;2023-12-28T14:47:48;29.33;;;15.93;;
75297;SDS011;63896;45.990;18.688;2023-12-28T14:50:51;43.20;;;20.42;;
75297;SDS011;63896;45.990;18.688;2023-12-28T14:53:54;37.97;;;17.23;;
75297;SDS011;63896;45.990;18.688;2023-12-28T14:56:57;33.55;;;17.90;;
75297;SDS011;63896;45.990;18.688;2023-12-28T14:59:59;49.88;;;22.00;;
75297;SDS011;63896;45.990;18.688;2023-12-28T15:03:02;90.13;;;32.63;;
75297;SDS011;63896;45.990;18.688;2023-12-28T15:06:05;80.10;;;33.25;;
75297;SDS011;63896;45.990;18.688;2023-12-28T15:09:08;57.15;;;25.20;;
75297;SDS011;63896;45.990;18.688;2023-12-28T15:12:12;51.55;;;23.33;;
75297;SDS011;63896;45.990;18.688;2023-12-28T15:15:15;52.92;;;25.05;;
75297;SDS011;63896;45.990;18.688;2023-12-28T15:18:18;50.30;;;25.70;;
75297;SDS011;63896;45.990;18.688;2023-12-28T15:21:22;58.83;;;30.58;;
75297;SDS011;63896;45.990;18.688;2023-12-28T15:24:25;54.90;;;27.73;;
75297;SDS011;63896;45.990;18.688;2023-12-28T15:27:28;69.97;;;32.78;;
75297;SDS011;63896;45.990;18.688;2023-12-28T15:30:31;89.32;;;41.55;;
75297;SDS011;63896;45.990;18.688;2023-12-28T15:33:34;81.13;;;38.90;;
75297;SDS011;63896;45.990;18.688;2023-12-28T15:36:37;67.45;;;34.85;;
75297;SDS011;63896;45.990;18.688;2023-12-28T15:39:40;75.47;;;37.95;;
75297;SDS011;63896;45.990;18.688;2023-12-28T15:42:44;84.63;;;42.70;;
75297;SDS011;63896;45.990;18.688;2023-12-28T15:45:50;88.18;;;43.42;;
75297;SDS011;63896;45.990;18.688;2023-12-28T15:48:53;81.10;;;38.00;;
75297;SDS011;63896;45.990;18.688;2023-12-28T15:51:56;67.60;;;32.25;;
75297;SDS011;63896;45.990;18.688;2023-12-28T15:55:00;67.03;;;31.10;;
75297;SDS011;63896;45.990;18.688;2023-12-28T15:58:02;69.82;;;31.33;;
75297;SDS011;63896;45.990;18.688;2023-12-28T16:01:06;69.43;;;35.28;;
75297;SDS011;63896;45.990;18.688;2023-12-28T16:04:08;71.50;;;36.23;;
75297;SDS011;63896;45.990;18.688;2023-12-28T16:07:11;65.43;;;34.17;;
75297;SDS011;63896;45.990;18.688;2023-12-28T16:10:14;67.70;;;34.53;;
75297;SDS011;63896;45.990;18.688;2023-12-28T16:13:17;57.70;;;29.33;;
75297;SDS011;63896;45.990;18.688;2023-12-28T16:16:20;56.20;;;28.13;;
75297;SDS011;63896;45.990;18.688;2023-12-28T16:19:23;61.07;;;28.90;;
75297;SDS011;63896;45.990;18.688;2023-12-28T16:22:26;62.50;;;31.85;;
75297;SDS011;63896;45.990;18.688;2023-12-28T16:25:29;71.97;;;35.95;;
75297;SDS011;63896;45.990;18.688;2023-12-28T16:28:32;81.22;;;35.05;;
75297;SDS011;63896;45.990;18.688;2023-12-28T16:31:37;80.65;;;37.75;;
75297;SDS011;63896;45.990;18.688;2023-12-28T16:34:40;61.93;;;29.57;;
75297;SDS011;63896;45.990;18.688;2023-12-28T16:37:43;57.67;;;26.40;;
75297;SDS011;63896;45.990;18.688;2023-12-28T16:40:46;55.50;;;26.40;;
75297;SDS011;63896;45.990;18.688;2023-12-28T16:43:49;65.22;;;32.33;;
75297;SDS011;63896;45.990;18.688;2023-12-28T16:46:52;71.80;;;36.42;;
75297;SDS011;63896;45.990;18.688;2023-12-28T16:49:54;75.60;;;37.13;;
75297;SDS011;63896;45.990;18.688;2023-12-28T16:52:58;76.60;;;38.50;;
75297;SDS011;63896;45.990;18.688;2023-12-28T16:56:01;83.25;;;40.88;;
75297;SDS011;63896;45.990;18.688;2023-12-28T16:59:03;85.25;;;39.22;;
75297;SDS011;63896;45.990;18.688;2023-12-28T17:02:06;74.85;;;38.33;;
75297;SDS011;63896;45.990;18.688;2023-12-28T17:05:09;73.67;;;36.77;;
75297;SDS011;63896;45.990;18.688;2023-12-28T17:08:13;78.10;;;37.08;;
75297;SDS011;63896;45.990;18.688;2023-12-28T17:11:16;77.13;;;36.78;;
75297;SDS011;63896;45.990;18.688;2023-12-28T17:14:19;78.55;;;38.20;;
75297;SDS011;63896;45.990;18.688;2023-12-28T17:17:22;78.38;;;41.15;;
75297;SDS011;63896;45.990;18.688;2023-12-28T17:20:29;85.93;;;40.07;;
75297;SDS011;63896;45.990;18.688;2023-12-28T17:23:36;70.43;;;34.00;;
75297;SDS011;63896;45.990;18.688;2023-12-28T17:26:43;74.43;;;34.00;;
75297;SDS011;63896;45.990;18.688;2023-12-28T17:29:52;75.35;;;36.65;;
75297;SDS011;63896;45.990;18.688;2023-12-28T17:33:04;70.13;;;33.40;;
75297;SDS011;63896;45.990;18.688;2023-12-28T17:36:08;62.77;;;32.13;;
75297;SDS011;63896;45.990;18.688;2023-12-28T17:39:11;58.90;;;27.70;;
75297;SDS011;63896;45.990;18.688;2023-12-28T17:42:15;73.22;;;36.63;;
75297;SDS011;63896;45.990;18.688;2023-12-28T17:45:25;59.67;;;29.35;;
75297;SDS011;63896;45.990;18.688;2023-12-28T17:48:34;66.47;;;31.50;;